sensor_id;sensor_type;location;lat;lon;timestamp;pressure;altitude;pressure_sealevel;temperature;humidity
76052;BME280;64751;48.708;9.710;2023-08-30T14:32:40;96869.31;;;17.66;75.91
76052;BME280;64751;48.708;9.710;2023-08-30T14:35:08;96865.63;;;17.71;76.09
76052;BME280;64751;48.708;9.710;2023-08-30T14:37:37;96867.28;;;17.75;76.03
76052;BME280;64751;48.708;9.710;2023-08-30T14:40:06;96865.47;;;17.79;72.27
76052;BME280;64751;48.708;9.710;2023-08-30T14:42:34;96867.91;;;17.84;73.50
76052;BME280;64751;48.708;9.710;2023-08-30T14:45:02;96862.66;;;17.88;73.15
76052;BME280;64751;48.708;9.710;2023-08-30T14:47:30;96865.09;;;17.93;72.48
76052;BME280;64751;48.708;9.710;2023-08-30T14:49:59;96861.66;;;17.92;72.03
76052;BME280;64751;48.708;9.710;2023-08-30T14:52:29;96860.19;;;17.95;69.95
76052;BME280;64751;48.708;9.710;2023-08-30T14:54:57;96864.22;;;17.89;67.43
76052;BME280;64751;48.708;9.710;2023-08-30T14:57:25;96865.78;;;17.90;68.84
76052;BME280;64751;48.708;9.710;2023-08-30T14:59:52;96858.88;;;17.89;69.92
76052;BME280;64751;48.708;9.710;2023-08-30T15:02:20;96853.19;;;17.90;69.84
76052;BME280;64751;48.708;9.710;2023-08-30T15:04:48;96859.75;;;17.93;69.18
76052;BME280;64751;48.708;9.710;2023-08-30T15:07:18;96862.75;;;17.91;72.49
76052;BME280;64751;48.708;9.710;2023-08-30T15:09:45;96859.06;;;17.96;70.11
76052;BME280;64751;48.708;9.710;2023-08-30T15:12:13;96861.66;;;17.92;68.42
76052;BME280;64751;48.708;9.710;2023-08-30T15:14:41;96866.75;;;17.97;69.36
76052;BME280;64751;48.708;9.710;2023-08-30T15:17:09;96863.81;;;18.02;71.34
76052;BME280;64751;48.708;9.710;2023-08-30T15:19:36;96869.94;;;18.03;67.06
76052;BME280;64751;48.708;9.710;2023-08-30T15:22:04;96869.88;;;17.99;64.48
76052;BME280;64751;48.708;9.710;2023-08-30T15:24:33;96872.53;;;17.99;64.01
76052;BME280;64751;48.708;9.710;2023-08-30T15:27:00;96871.31;;;17.97;64.70
76052;BME280;64751;48.708;9.710;2023-08-30T15:29:28;96866.41;;;17.99;66.82
76052;BME280;64751;48.708;9.710;2023-08-30T15:31:55;96861.53;;;17.89;67.63
76052;BME280;64751;48.708;9.710;2023-08-30T15:34:23;96860.34;;;17.86;69.57
76052;BME280;64751;48.708;9.710;2023-08-30T15:36:51;96857.56;;;17.83;69.90
76052;BME280;64751;48.708;9.710;2023-08-30T15:39:19;96865.47;;;17.79;68.91
76052;BME280;64751;48.708;9.710;2023-08-30T15:41:47;96867.47;;;17.82;71.88
76052;BME280;64751;48.708;9.710;2023-08-30T15:44:15;96862.66;;;17.88;71.30
76052;BME280;64751;48.708;9.710;2023-08-30T15:46:42;96864.84;;;17.98;72.79
76052;BME280;64751;48.708;9.710;2023-08-30T15:49:10;96868.41;;;18.02;72.82
76052;BME280;64751;48.708;9.710;2023-08-30T15:51:37;96867.28;;;18.03;73.78
76052;BME280;64751;48.708;9.710;2023-08-30T15:54:05;96866.88;;;17.89;73.59
76052;BME280;64751;48.708;9.710;2023-08-30T15:56:33;96859.34;;;17.79;75.25
76052;BME280;64751;48.708;9.710;2023-08-30T15:59:02;96865.94;;;17.69;76.14
76052;BME280;64751;48.708;9.710;2023-08-30T16:01:30;96859.19;;;17.60;75.01
76052;BME280;64751;48.708;9.710;2023-08-30T16:03:57;96860.66;;;17.57;76.03
76052;BME280;64751;48.708;9.710;2023-08-30T16:06:25;96865.44;;;17.52;74.91
76052;BME280;64751;48.708;9.710;2023-08-30T16:08:52;96859.84;;;17.45;74.22
76052;BME280;64751;48.708;9.710;2023-08-30T16:11:20;96860.09;;;17.52;74.17
76052;BME280;64751;48.708;9.710;2023-08-30T16:13:48;96865.44;;;17.52;74.63
76052;BME280;64751;48.708;9.710;2023-08-30T16:16:17;96855.38;;;17.49;74.07
76052;BME280;64751;48.708;9.710;2023-08-30T16:18:44;96855.97;;;17.42;76.53
76052;BME280;64751;48.708;9.710;2023-08-30T16:21:12;96863.75;;;17.35;77.11
76052;BME280;64751;48.708;9.710;2023-08-30T16:23:39;96859.19;;;17.35;76.92
76052;BME280;64751;48.708;9.710;2023-08-30T16:26:07;96862.00;;;17.27;79.51
76052;BME280;64751;48.708;9.710;2023-08-30T16:28:34;96860.69;;;17.21;80.68
76052;BME280;64751;48.708;9.710;2023-08-30T16:31:04;96857.34;;;17.12;81.95
76052;BME280;64751;48.708;9.710;2023-08-30T16:33:33;96864.78;;;17.06;83.21
76052;BME280;64751;48.708;9.710;2023-08-30T16:36:00;96865.69;;;16.98;83.47
76052;BME280;64751;48.708;9.710;2023-08-30T16:38:29;96862.00;;;16.91;86.51
76052;BME280;64751;48.708;9.710;2023-08-30T16:40:57;96862.13;;;16.82;84.54
76052;BME280;64751;48.708;9.710;2023-08-30T16:43:47;96864.44;;;16.72;84.62
76052;BME280;64751;48.708;9.710;2023-08-30T16:46:14;96866.53;;;16.66;87.24
76052;BME280;64751;48.708;9.710;2023-08-30T16:48:43;96869.53;;;16.64;87.48
76052;BME280;64751;48.708;9.710;2023-08-30T16:51:11;96867.53;;;16.61;89.43
76052;BME280;64751;48.708;9.710;2023-08-30T16:53:38;96866.19;;;16.55;90.14
76052;BME280;64751;48.708;9.710;2023-08-30T16:56:06;96869.06;;;16.50;89.65
76052;BME280;64751;48.708;9.710;2023-08-30T16:58:33;96865.13;;;16.48;89.87
76052;BME280;64751;48.708;9.710;2023-08-30T17:01:01;96862.81;;;16.46;89.63
76052;BME280;64751;48.708;9.710;2023-08-30T17:03:34;96869.59;;;16.44;89.79
76052;BME280;64751;48.708;9.710;2023-08-30T17:06:03;96864.91;;;16.41;89.73
76052;BME280;64751;48.708;9.710;2023-08-30T17:08:32;96866.38;;;16.38;90.38
76052;BME280;64751;48.708;9.710;2023-08-30T17:11:03;96859.34;;;16.34;91.20
76052;BME280;64751;48.708;9.710;2023-08-30T17:13:31;96864.00;;;16.37;91.40
76052;BME280;64751;48.708;9.710;2023-08-30T17:15:59;96871.56;;;16.35;91.33
76052;BME280;64751;48.708;9.710;2023-08-30T17:18:27;96870.00;;;16.34;91.65
76052;BME280;64751;48.708;9.710;2023-08-30T17:20:55;96862.66;;;16.31;91.41
76052;BME280;64751;48.708;9.710;2023-08-30T17:23:24;96867.56;;;16.29;91.33
76052;BME280;64751;48.708;9.710;2023-08-30T17:25:52;96863.31;;;16.28;92.04
76052;BME280;64751;48.708;9.710;2023-08-30T17:28:20;96857.53;;;16.26;92.64
76052;BME280;64751;48.708;9.710;2023-08-30T17:30:47;96859.56;;;16.29;93.04
76052;BME280;64751;48.708;9.710;2023-08-30T17:33:15;96860.66;;;16.28;94.06
76052;BME280;64751;48.708;9.710;2023-08-30T17:35:43;96863.22;;;16.24;94.28
76052;BME280;64751;48.708;9.710;2023-08-30T17:38:10;96855.41;;;16.19;92.76
76052;BME280;64751;48.708;9.710;2023-08-30T17:40:40;96864.84;;;16.17;93.24
76052;BME280;64751;48.708;9.710;2023-08-30T17:43:10;96866.59;;;16.13;94.19
76052;BME280;64751;48.708;9.710;2023-08-30T17:45:38;96864.13;;;16.08;94.66
76052;BME280;64751;48.708;9.710;2023-08-30T17:48:06;96868.56;;;16.04;95.66
76052;BME280;64751;48.708;9.710;2023-08-30T17:50:34;96875.53;;;15.96;95.17
76052;BME280;64751;48.708;9.710;2023-08-30T17:53:02;96871.84;;;15.88;95.71
76052;BME280;64751;48.708;9.710;2023-08-30T17:55:30;96870.00;;;15.80;95.79
76052;BME280;64751;48.708;9.710;2023-08-30T17:57:59;96871.66;;;15.73;96.37
76052;BME280;64751;48.708;9.710;2023-08-30T18:00:27;96863.06;;;15.67;95.96
76052;BME280;64751;48.708;9.710;2023-08-30T18:02:54;96875.16;;;15.65;96.64
76052;BME280;64751;48.708;9.710;2023-08-30T18:05:22;96878.03;;;15.60;96.89
76052;BME280;64751;48.708;9.710;2023-08-30T18:07:50;96884.31;;;15.55;97.35
76052;BME280;64751;48.708;9.710;2023-08-30T18:10:22;96882.19;;;15.49;97.59
76052;BME280;64751;48.708;9.710;2023-08-30T18:12:50;96882.81;;;15.46;97.12
76052;BME280;64751;48.708;9.710;2023-08-30T18:15:19;96888.75;;;15.43;97.47
76052;BME280;64751;48.708;9.710;2023-08-30T18:17:46;96885.50;;;15.37;97.44
76052;BME280;64751;48.708;9.710;2023-08-30T18:20:14;96884.78;;;15.28;97.37
76052;BME280;64751;48.708;9.710;2023-08-30T18:22:42;96891.19;;;15.27;97.60
76052;BME280;64751;48.708;9.710;2023-08-30T18:25:09;96889.47;;;15.22;97.27
76052;BME280;64751;48.708;9.710;2023-08-30T18:27:37;96882.00;;;15.16;97.40
76052;BME280;64751;48.708;9.710;2023-08-30T18:30:06;96886.75;;;15.10;96.71
76052;BME280;64751;48.708;9.710;2023-08-30T18:32:35;96893.03;;;15.06;97.13
76052;BME280;64751;48.708;9.710;2023-08-30T18:35:03;96894.75;;;15.02;97.01
76052;BME280;64751;48.708;9.710;2023-08-30T18:37:31;96895.72;;;14.97;97.15
76052;BME280;64751;48.708;9.710;2023-08-30T18:39:59;96890.13;;;14.90;96.87
76052;BME280;64751;48.708;9.710;2023-08-30T18:42:26;96896.88;;;14.88;97.48
76052;BME280;64751;48.708;9.710;2023-08-30T18:44:54;96892.63;;;14.87;97.41
76052;BME280;64751;48.708;9.710;2023-08-30T18:47:22;96901.25;;;14.84;96.82
76052;BME280;64751;48.708;9.710;2023-08-30T18:49:52;96893.00;;;14.77;96.23
76052;BME280;64751;48.708;9.710;2023-08-30T18:52:20;96899.56;;;14.71;95.79
76052;BME280;64751;48.708;9.710;2023-08-30T18:54:47;96898.81;;;14.62;96.67
76052;BME280;64751;48.708;9.710;2023-08-30T18:57:17;96904.00;;;14.58;96.61
76052;BME280;64751;48.708;9.710;2023-08-30T18:59:45;96901.50;;;14.53;96.38
76052;BME280;64751;48.708;9.710;2023-08-30T19:02:13;96904.03;;;14.49;96.01
76052;BME280;64751;48.708;9.710;2023-08-30T19:04:40;96904.97;;;14.45;96.57
76052;BME280;64751;48.708;9.710;2023-08-30T19:07:10;96911.22;;;14.40;95.92
76052;BME280;64751;48.708;9.710;2023-08-30T19:09:40;96910.94;;;14.33;95.36
76052;BME280;64751;48.708;9.710;2023-08-30T19:12:08;96902.03;;;14.29;95.37
76052;BME280;64751;48.708;9.710;2023-08-30T19:14:36;96910.13;;;14.24;95.52
76052;BME280;64751;48.708;9.710;2023-08-30T19:17:04;96909.66;;;14.22;95.98
76052;BME280;64751;48.708;9.710;2023-08-30T19:19:31;96911.41;;;14.18;95.18
76052;BME280;64751;48.708;9.710;2023-08-30T19:21:59;96906.69;;;14.15;95.24
76052;BME280;64751;48.708;9.710;2023-08-30T19:24:28;96909.97;;;14.12;95.26
76052;BME280;64751;48.708;9.710;2023-08-30T19:27:00;96905.59;;;14.08;94.92
76052;BME280;64751;48.708;9.710;2023-08-30T19:29:29;96908.13;;;14.04;94.55
76052;BME280;64751;48.708;9.710;2023-08-30T19:31:57;96902.50;;;13.97;94.62
76052;BME280;64751;48.708;9.710;2023-08-30T19:34:25;96899.22;;;13.92;94.32
76052;BME280;64751;48.708;9.710;2023-08-30T19:36:53;96896.72;;;13.87;94.36
76052;BME280;64751;48.708;9.710;2023-08-30T19:39:21;96898.13;;;13.84;94.32
76052;BME280;64751;48.708;9.710;2023-08-30T19:41:50;96904.69;;;13.78;94.82
76052;BME280;64751;48.708;9.710;2023-08-30T19:44:18;96898.91;;;13.76;94.83
76052;BME280;64751;48.708;9.710;2023-08-30T19:46:45;96900.78;;;13.75;94.69
76052;BME280;64751;48.708;9.710;2023-08-30T19:49:13;96914.97;;;13.71;94.14
76052;BME280;64751;48.708;9.710;2023-08-30T19:51:41;96907.31;;;13.61;94.58
76052;BME280;64751;48.708;9.710;2023-08-30T19:54:08;96914.34;;;13.65;94.74
76052;BME280;64751;48.708;9.710;2023-08-30T19:56:36;96920.28;;;13.62;94.33
76052;BME280;64751;48.708;9.710;2023-08-30T19:59:05;96923.56;;;13.59;94.38
76052;BME280;64751;48.708;9.710;2023-08-30T20:01:33;96928.06;;;13.59;94.60
76052;BME280;64751;48.708;9.710;2023-08-30T20:04:01;96930.72;;;13.59;94.85
76052;BME280;64751;48.708;9.710;2023-08-30T20:06:28;96932.91;;;13.57;94.86
76052;BME280;64751;48.708;9.710;2023-08-30T20:08:56;96934.03;;;13.56;94.79
76052;BME280;64751;48.708;9.710;2023-08-30T20:11:24;96929.97;;;13.58;94.75
76052;BME280;64751;48.708;9.710;2023-08-30T20:13:52;96936.97;;;13.54;94.76
76052;BME280;64751;48.708;9.710;2023-08-30T20:16:22;96931.66;;;13.54;94.87
76052;BME280;64751;48.708;9.710;2023-08-30T20:18:49;96927.91;;;13.55;95.10
76052;BME280;64751;48.708;9.710;2023-08-30T20:21:18;96936.19;;;13.54;95.32
76052;BME280;64751;48.708;9.710;2023-08-30T20:23:46;96931.50;;;13.51;94.97
76052;BME280;64751;48.708;9.710;2023-08-30T20:26:14;96933.84;;;13.52;95.40
76052;BME280;64751;48.708;9.710;2023-08-30T20:28:41;96930.56;;;13.55;95.90
76052;BME280;64751;48.708;9.710;2023-08-30T20:31:12;96938.69;;;13.59;96.04
76052;BME280;64751;48.708;9.710;2023-08-30T20:33:42;96934.31;;;13.63;96.31
76052;BME280;64751;48.708;9.710;2023-08-30T20:36:10;96942.44;;;13.66;95.91
76052;BME280;64751;48.708;9.710;2023-08-30T20:38:38;96941.19;;;13.64;96.76
76052;BME280;64751;48.708;9.710;2023-08-30T20:41:05;96951.19;;;13.67;97.13
76052;BME280;64751;48.708;9.710;2023-08-30T20:43:33;96949.00;;;13.69;97.00
76052;BME280;64751;48.708;9.710;2023-08-30T20:46:01;96950.41;;;13.66;97.73
76052;BME280;64751;48.708;9.710;2023-08-30T20:48:29;96953.88;;;13.75;97.83
76052;BME280;64751;48.708;9.710;2023-08-30T20:50:59;96963.53;;;13.80;97.99
76052;BME280;64751;48.708;9.710;2023-08-30T20:53:31;96976.69;;;13.85;98.24
76052;BME280;64751;48.708;9.710;2023-08-30T20:56:00;96991.69;;;13.90;99.26
76052;BME280;64751;48.708;9.710;2023-08-30T20:58:31;96989.16;;;13.93;98.52
76052;BME280;64751;48.708;9.710;2023-08-30T21:00:59;96999.97;;;14.05;98.60
76052;BME280;64751;48.708;9.710;2023-08-30T21:03:27;97001.03;;;14.13;98.75
76052;BME280;64751;48.708;9.710;2023-08-30T21:05:54;96999.03;;;14.18;97.78
76052;BME280;64751;48.708;9.710;2023-08-30T21:08:24;96993.06;;;14.21;98.40
76052;BME280;64751;48.708;9.710;2023-08-30T21:10:52;96993.41;;;14.28;98.12
76052;BME280;64751;48.708;9.710;2023-08-30T21:13:20;96995.94;;;14.33;97.42
76052;BME280;64751;48.708;9.710;2023-08-30T21:15:47;96986.06;;;14.42;96.93
76052;BME280;64751;48.708;9.710;2023-08-30T21:18:15;96983.41;;;14.42;97.57
76052;BME280;64751;48.708;9.710;2023-08-30T21:20:43;96991.69;;;14.49;97.94
76052;BME280;64751;48.708;9.710;2023-08-30T21:23:10;96995.63;;;14.52;98.07
76052;BME280;64751;48.708;9.710;2023-08-30T21:25:42;96992.78;;;14.57;97.78
76052;BME280;64751;48.708;9.710;2023-08-30T21:28:10;96998.59;;;14.59;99.10
76052;BME280;64751;48.708;9.710;2023-08-30T21:30:39;96993.09;;;14.56;98.54
76052;BME280;64751;48.708;9.710;2023-08-30T21:33:07;96997.78;;;14.59;98.60
76052;BME280;64751;48.708;9.710;2023-08-30T21:35:36;96990.44;;;14.56;98.80
76052;BME280;64751;48.708;9.710;2023-08-30T21:38:04;97002.31;;;14.58;98.53
76052;BME280;64751;48.708;9.710;2023-08-30T21:40:33;97003.56;;;14.61;98.84
76052;BME280;64751;48.708;9.710;2023-08-30T21:43:02;97002.31;;;14.58;98.55
76052;BME280;64751;48.708;9.710;2023-08-30T21:45:30;97009.50;;;14.58;99.72
76052;BME280;64751;48.708;9.710;2023-08-30T21:47:57;97001.53;;;14.58;99.02
76052;BME280;64751;48.708;9.710;2023-08-30T21:50:25;97001.53;;;14.58;99.19
76052;BME280;64751;48.708;9.710;2023-08-30T21:52:53;97001.84;;;14.56;99.42
76052;BME280;64751;48.708;9.710;2023-08-30T21:55:20;97000.28;;;14.55;99.95
76052;BME280;64751;48.708;9.710;2023-08-30T21:57:48;96999.97;;;14.57;100.00
